createdAt,value
2019-06-01T00:01:07.743Z,14.73
2019-06-01T00:03:38.335Z,15.47
2019-06-01T00:06:06.108Z,13.50
2019-06-01T00:08:33.589Z,15.03
2019-06-01T00:11:01.155Z,13.70
2019-06-01T00:13:32.122Z,16.83
2019-06-01T00:15:59.973Z,15.10
2019-06-01T00:18:27.531Z,15.90
2019-06-01T00:20:55.489Z,15.20
2019-06-01T00:23:22.953Z,14.90
2019-06-01T00:25:50.407Z,15.17
2019-06-01T00:28:18.141Z,14.63
2019-06-01T00:30:45.826Z,14.83
2019-06-01T00:33:13.480Z,15.40
2019-06-01T00:35:41.390Z,16.00
2019-06-01T00:38:09.086Z,16.07
2019-06-01T00:40:36.817Z,13.73
2019-06-01T00:43:04.417Z,15.90
2019-06-01T00:45:31.841Z,16.43
2019-06-01T00:47:59.457Z,15.40
2019-06-01T00:50:26.889Z,16.80
2019-06-01T00:52:54.947Z,16.93
2019-06-01T00:55:23.551Z,17.13
2019-06-01T00:57:51.906Z,17.13
2019-06-01T01:00:19.497Z,16.40
2019-06-01T01:02:48.064Z,16.53
2019-06-01T01:05:17.121Z,16.20
2019-06-01T01:07:44.797Z,17.30
2019-06-01T01:10:12.745Z,15.20
2019-06-01T01:12:58.016Z,15.10
2019-06-01T01:15:26.669Z,15.90
2019-06-01T01:17:56.226Z,16.00
2019-06-01T01:20:23.895Z,16.27
2019-06-01T01:22:52.231Z,15.50
2019-06-01T01:25:19.894Z,15.77
2019-06-01T01:27:49.072Z,16.90
2019-06-01T01:30:16.854Z,15.10
2019-06-01T01:32:44.458Z,16.80
2019-06-01T01:35:12.238Z,14.97
2019-06-01T01:37:39.726Z,16.70
2019-06-01T01:40:07.606Z,17.17
2019-06-01T01:42:35.103Z,16.93
2019-06-01T01:45:03.050Z,15.57
2019-06-01T01:47:30.486Z,16.47
2019-06-01T01:49:58.183Z,16.60
2019-06-01T01:52:25.906Z,16.73
2019-06-01T01:54:53.370Z,18.10
2019-06-01T01:57:21.934Z,15.20
2019-06-01T01:59:49.368Z,17.07
2019-06-01T02:02:16.974Z,16.37
2019-06-01T02:04:44.551Z,16.27
2019-06-01T02:07:11.976Z,17.67
2019-06-01T02:09:39.530Z,17.50
2019-06-01T02:12:06.914Z,17.77
2019-06-01T02:14:34.389Z,18.87
2019-06-01T02:17:02.538Z,18.10
2019-06-01T02:19:30.242Z,16.37
2019-06-01T02:21:58.483Z,15.23
2019-06-01T02:24:26.103Z,15.90
2019-06-01T02:26:55.012Z,15.80
2019-06-01T02:29:22.973Z,17.37
2019-06-01T02:31:50.804Z,17.40
2019-06-01T02:34:18.427Z,18.20
2019-06-01T02:36:47.168Z,17.30
2019-06-01T02:39:15.380Z,19.97
2019-06-01T02:41:43.395Z,17.57
2019-06-01T02:44:11.985Z,17.80
2019-06-01T02:46:39.401Z,18.13
2019-06-01T02:49:06.901Z,17.10
2019-06-01T02:51:34.520Z,17.00
2019-06-01T02:54:02.085Z,18.80
2019-06-01T02:56:30.689Z,19.80
2019-06-01T02:58:58.498Z,19.10
2019-06-01T03:01:36.445Z,19.70
2019-06-01T03:04:08.155Z,21.10
2019-06-01T03:06:36.553Z,19.60
2019-06-01T03:09:08.885Z,18.93
2019-06-01T03:11:37.571Z,19.17
2019-06-01T03:14:06.707Z,18.90
2019-06-01T03:16:40.041Z,20.80
2019-06-01T03:19:07.909Z,20.33
2019-06-01T03:21:36.762Z,19.33
2019-06-01T03:24:08.146Z,20.83
2019-06-01T03:26:41.613Z,21.60
2019-06-01T03:29:12.652Z,19.77
2019-06-01T03:31:40.298Z,21.87
2019-06-01T03:34:09.343Z,20.67
2019-06-01T03:36:37.301Z,21.00
2019-06-01T03:39:06.134Z,19.50
2019-06-01T03:41:33.958Z,22.75
2019-06-01T03:44:02.569Z,20.73
2019-06-01T03:46:30.456Z,20.30
2019-06-01T03:48:58.047Z,20.33
2019-06-01T03:51:25.560Z,21.43
2019-06-01T03:53:53.100Z,23.07
2019-06-01T03:56:20.766Z,22.33
2019-06-01T03:58:48.390Z,21.67
2019-06-01T04:01:15.878Z,22.70
2019-06-01T04:03:43.429Z,22.67
2019-06-01T04:06:11.395Z,21.23
2019-06-01T04:08:39.027Z,22.90
2019-06-01T04:11:07.670Z,23.30
2019-06-01T04:13:35.481Z,22.93
2019-06-01T04:16:03.738Z,23.10
2019-06-01T04:18:31.378Z,22.80
2019-06-01T04:20:59.071Z,22.57
2019-06-01T04:23:26.657Z,24.43
2019-06-01T04:25:54.825Z,23.80
2019-06-01T04:28:22.371Z,24.00
2019-06-01T04:30:50.302Z,23.90
2019-06-01T04:33:17.857Z,23.97
2019-06-01T04:35:45.378Z,23.33
2019-06-01T04:38:13.397Z,22.90
2019-06-01T04:40:41.400Z,22.90
2019-06-01T04:43:10.152Z,23.03
2019-06-01T04:45:37.774Z,22.27
2019-06-01T04:48:06.405Z,21.60
2019-06-01T04:50:52.479Z,22.20
2019-06-01T04:53:20.018Z,21.35
2019-06-01T04:55:47.911Z,21.07
2019-06-01T04:58:15.475Z,20.70
2019-06-01T05:00:45.973Z,20.67
2019-06-01T05:03:15.214Z,19.40
2019-06-01T05:05:43.258Z,18.70
2019-06-01T05:08:12.633Z,18.10
2019-06-01T05:10:40.307Z,18.80
2019-06-01T05:13:07.713Z,19.90
2019-06-01T05:15:35.298Z,19.90
2019-06-01T05:18:03.055Z,19.30
2019-06-01T05:20:30.878Z,20.00
2019-06-01T05:22:58.126Z,19.77
2019-06-01T05:25:36.366Z,18.80
2019-06-01T05:28:04.033Z,20.63
2019-06-01T05:30:31.947Z,19.73
2019-06-01T05:32:59.445Z,20.30
2019-06-01T05:35:27.533Z,20.57
2019-06-01T05:37:58.373Z,20.47
2019-06-01T05:40:26.161Z,19.90
2019-06-01T05:42:56.522Z,21.57
2019-06-01T05:45:24.212Z,20.33
2019-06-01T05:47:51.797Z,21.77
2019-06-01T05:50:19.697Z,21.63
2019-06-01T05:52:47.085Z,21.47
2019-06-01T05:55:14.839Z,22.40
2019-06-01T05:57:42.379Z,22.90
2019-06-01T06:00:10.988Z,23.33
2019-06-01T06:02:38.571Z,23.63
2019-06-01T06:05:06.584Z,21.40
2019-06-01T06:07:34.090Z,21.13
2019-06-01T06:10:01.485Z,21.53
2019-06-01T06:12:30.260Z,22.40
2019-06-01T06:14:57.755Z,20.97
2019-06-01T06:17:25.226Z,22.17
2019-06-01T06:19:52.690Z,20.23
2019-06-01T06:22:20.667Z,20.08
2019-06-01T06:24:48.454Z,18.77
2019-06-01T06:27:16.474Z,16.70
2019-06-01T06:29:44.069Z,16.60
2019-06-01T06:32:12.685Z,16.10
2019-06-01T06:34:40.486Z,16.30
2019-06-01T06:37:07.997Z,15.53
2019-06-01T06:39:35.562Z,15.63
2019-06-01T06:42:03.103Z,15.63
2019-06-01T06:44:30.546Z,14.60
2019-06-01T06:46:58.297Z,13.90
2019-06-01T06:49:28.206Z,15.27
2019-06-01T06:51:56.307Z,14.87
2019-06-01T06:54:23.957Z,14.27
2019-06-01T06:56:51.501Z,15.17
2019-06-01T06:59:20.400Z,14.90
2019-06-01T07:01:47.866Z,14.67
2019-06-01T07:04:15.521Z,12.80
2019-06-01T07:06:43.353Z,13.30
2019-06-01T07:09:11.073Z,13.20
2019-06-01T07:11:38.629Z,12.53
2019-06-01T07:14:06.997Z,12.90
2019-06-01T07:16:34.639Z,12.13
2019-06-01T07:19:02.121Z,11.50
2019-06-01T07:21:29.891Z,12.37
2019-06-01T07:23:57.405Z,11.00
2019-06-01T07:26:26.103Z,11.63
2019-06-01T07:28:56.910Z,10.60
2019-06-01T07:31:24.537Z,11.07
2019-06-01T07:33:52.294Z,10.60
2019-06-01T07:36:20.283Z,9.27
2019-06-01T07:38:48.214Z,8.80
2019-06-01T07:41:16.054Z,9.37
2019-06-01T07:43:44.920Z,9.13
2019-06-01T07:46:12.684Z,8.83
2019-06-01T07:48:40.303Z,9.17
2019-06-01T07:51:07.895Z,9.83
2019-06-01T07:53:36.015Z,9.40
2019-06-01T07:56:03.518Z,9.73
2019-06-01T07:58:31.278Z,9.40
2019-06-01T08:00:58.971Z,9.67
2019-06-01T08:03:30.727Z,8.93
2019-06-01T08:05:56.054Z,9.60
2019-06-01T08:08:25.182Z,9.70
2019-06-01T08:10:54.764Z,9.20
2019-06-01T08:13:23.398Z,8.70
2019-06-01T08:15:51.216Z,9.20
2019-06-01T08:18:19.046Z,9.87
2019-06-01T08:20:46.570Z,8.63
2019-06-01T08:23:14.434Z,10.23
2019-06-01T08:25:42.094Z,9.13
2019-06-01T08:28:09.548Z,10.20
2019-06-01T08:30:37.097Z,9.87
2019-06-01T08:33:04.729Z,9.10
2019-06-01T08:35:33.198Z,9.63
2019-06-01T08:38:00.845Z,10.72
2019-06-01T08:40:29.444Z,10.37
2019-06-01T08:42:58.222Z,10.20
2019-06-01T08:45:25.718Z,8.00
2019-06-01T08:48:13.879Z,9.80
2019-06-01T08:50:41.449Z,9.93
2019-06-01T08:53:08.850Z,9.30
2019-06-01T08:55:36.370Z,9.80
2019-06-01T08:58:03.883Z,9.60
2019-06-01T09:00:32.524Z,8.90
2019-06-01T09:03:00.212Z,9.63
2019-06-01T09:05:28.919Z,9.40
2019-06-01T09:07:57.202Z,9.80
2019-06-01T09:10:25.215Z,9.97
2019-06-01T09:12:52.874Z,8.67
2019-06-01T09:15:21.574Z,8.93
2019-06-01T09:17:49.099Z,9.80
2019-06-01T09:20:16.658Z,10.17
2019-06-01T09:22:47.942Z,8.93
2019-06-01T09:25:15.553Z,9.03
2019-06-01T09:27:43.086Z,9.90
2019-06-01T09:30:11.064Z,10.30
2019-06-01T09:32:38.632Z,9.80
2019-06-01T09:35:07.679Z,8.15
2019-06-01T09:37:35.238Z,9.73
2019-06-01T09:40:03.380Z,8.90
2019-06-01T09:42:30.827Z,9.30
2019-06-01T09:44:58.377Z,9.57
2019-06-01T09:47:27.096Z,8.17
2019-06-01T09:49:55.487Z,9.33
2019-06-01T09:52:23.050Z,9.03
2019-06-01T09:54:50.623Z,8.90
2019-06-01T09:57:18.304Z,8.90
2019-06-01T09:59:45.837Z,8.97
2019-06-01T10:02:13.339Z,7.97
2019-06-01T10:04:40.779Z,8.60
2019-06-01T10:07:08.238Z,8.07
2019-06-01T10:09:35.862Z,7.30
2019-06-01T10:12:03.618Z,7.60
2019-06-01T10:14:32.139Z,6.97
2019-06-01T10:17:00.018Z,8.00
2019-06-01T10:19:27.626Z,8.63
2019-06-01T10:21:57.661Z,7.37
2019-06-01T10:24:25.354Z,8.77
2019-06-01T10:26:52.804Z,7.10
2019-06-01T10:29:20.403Z,6.80
2019-06-01T10:31:48.055Z,7.00
2019-06-01T10:34:15.535Z,5.40
2019-06-01T10:36:43.145Z,6.37
2019-06-01T10:39:10.622Z,5.83
2019-06-01T10:41:38.085Z,4.80
2019-06-01T10:44:05.663Z,5.40
2019-06-01T10:46:33.809Z,5.40
2019-06-01T10:49:01.443Z,5.37
2019-06-01T10:51:29.087Z,5.80
2019-06-01T10:53:56.465Z,5.33
2019-06-01T10:56:23.995Z,6.00
2019-06-01T10:58:59.921Z,10.90
2019-06-01T11:01:21.506Z,5.30
2019-06-01T11:03:49.133Z,5.53
2019-06-01T11:06:16.681Z,5.30
2019-06-01T11:08:44.184Z,5.60
2019-06-01T11:11:12.899Z,6.03
2019-06-01T11:13:41.135Z,5.80
2019-06-01T11:16:09.201Z,5.27
2019-06-01T11:18:37.491Z,4.73
2019-06-01T11:21:05.278Z,4.77
2019-06-01T11:23:33.272Z,6.23
2019-06-01T11:26:01.055Z,5.10
2019-06-01T11:28:28.661Z,3.90
2019-06-01T11:30:56.146Z,4.50
2019-06-01T11:33:23.515Z,4.10
2019-06-01T11:35:51.029Z,4.30
2019-06-01T11:38:18.591Z,5.30
2019-06-01T11:40:46.179Z,4.15
2019-06-01T11:43:13.757Z,5.90
2019-06-01T11:45:41.336Z,4.70
2019-06-01T11:48:09.082Z,4.43
2019-06-01T11:50:36.985Z,4.13
2019-06-01T11:53:04.649Z,6.53
2019-06-01T11:55:32.499Z,5.30
2019-06-01T11:58:00.320Z,4.00
2019-06-01T12:00:27.903Z,4.03
2019-06-01T12:02:55.871Z,5.70
2019-06-01T12:05:23.563Z,6.10
2019-06-01T12:07:51.213Z,5.37
2019-06-01T12:10:18.793Z,4.93
2019-06-01T12:12:46.559Z,3.90
2019-06-01T12:15:14.227Z,3.80
2019-06-01T12:17:42.827Z,3.90
2019-06-01T12:20:11.775Z,3.60
2019-06-01T12:22:39.374Z,4.83
2019-06-01T12:25:06.871Z,5.67
2019-06-01T12:27:34.346Z,3.60
2019-06-01T12:30:01.926Z,4.27
2019-06-01T12:32:29.554Z,3.40
2019-06-01T12:34:57.317Z,4.27
2019-06-01T12:37:40.055Z,3.80
2019-06-01T12:39:55.025Z,4.10
2019-06-01T12:42:22.538Z,4.33
2019-06-01T12:44:50.282Z,4.10
2019-06-01T12:47:17.851Z,3.97
2019-06-01T12:49:46.309Z,3.67
2019-06-01T12:52:14.080Z,3.67
2019-06-01T12:54:42.906Z,3.77
2019-06-01T12:57:10.691Z,3.70
2019-06-01T12:59:38.364Z,3.50
2019-06-01T13:02:06.146Z,3.23
2019-06-01T13:04:33.643Z,3.50
2019-06-01T13:07:01.188Z,3.17
2019-06-01T13:09:29.003Z,3.27
2019-06-01T13:11:56.647Z,2.70
2019-06-01T13:14:24.171Z,3.00
2019-06-01T13:17:06.319Z,3.20
2019-06-01T13:19:21.645Z,3.20
2019-06-01T13:21:50.186Z,3.20
2019-06-01T13:24:18.134Z,2.93
2019-06-01T13:26:45.793Z,2.67
2019-06-01T13:29:13.344Z,4.00
2019-06-01T13:31:41.985Z,3.70
2019-06-01T13:34:09.776Z,4.50
2019-06-01T13:36:37.402Z,5.80
2019-06-01T13:39:06.914Z,3.10
2019-06-01T13:41:34.539Z,3.00
2019-06-01T13:44:02.063Z,4.70
2019-06-01T13:46:29.630Z,3.60
2019-06-01T13:48:57.123Z,8.28
2019-06-01T13:51:24.795Z,4.17
2019-06-01T13:53:52.940Z,3.07
2019-06-01T13:56:21.499Z,3.10
2019-06-01T13:58:50.273Z,3.40
2019-06-01T14:01:18.037Z,2.17
2019-06-01T14:03:45.602Z,3.03
2019-06-01T14:06:13.441Z,3.47
2019-06-01T14:08:40.867Z,3.20
2019-06-01T14:11:08.306Z,3.00
2019-06-01T14:13:35.908Z,2.57
2019-06-01T14:16:03.633Z,3.70
2019-06-01T14:18:31.128Z,3.17
2019-06-01T14:20:58.636Z,3.00
2019-06-01T14:23:26.256Z,3.30
2019-06-01T14:25:56.393Z,2.70
2019-06-01T14:28:23.986Z,3.70
2019-06-01T14:30:52.288Z,3.17
2019-06-01T14:33:20.340Z,2.80
2019-06-01T14:35:48.374Z,2.63
2019-06-01T14:38:16.011Z,3.27
2019-06-01T14:40:43.532Z,3.33
2019-06-01T14:43:11.263Z,3.03
2019-06-01T14:45:38.899Z,2.80
2019-06-01T14:48:06.314Z,2.97
2019-06-01T14:50:33.926Z,3.43
2019-06-01T14:53:01.450Z,2.60
2019-06-01T14:55:29.290Z,3.23
2019-06-01T14:57:58.324Z,2.90
2019-06-01T15:00:26.104Z,2.62
2019-06-01T15:02:54.834Z,2.70
2019-06-01T15:05:24.098Z,2.90
2019-06-01T15:07:52.362Z,3.20
2019-06-01T15:10:20.456Z,3.20
2019-06-01T15:12:52.730Z,3.00
2019-06-01T15:15:17.799Z,2.83
2019-06-01T15:17:45.329Z,3.00
2019-06-01T15:20:13.992Z,5.70
2019-06-01T15:22:41.725Z,4.77
2019-06-01T15:25:09.931Z,6.40
2019-06-01T15:27:38.845Z,5.90
2019-06-01T15:30:07.433Z,5.63
2019-06-01T15:32:35.291Z,5.93
2019-06-01T15:35:03.902Z,5.87
2019-06-01T15:37:36.526Z,6.03
2019-06-01T15:40:05.239Z,6.03
2019-06-01T15:42:32.973Z,8.80
2019-06-01T15:45:01.503Z,7.07
2019-06-01T15:47:29.355Z,7.90
2019-06-01T15:49:58.051Z,6.47
2019-06-01T15:52:25.933Z,6.50
2019-06-01T15:54:54.242Z,5.83
2019-06-01T15:57:22.039Z,8.00
2019-06-01T15:59:52.459Z,7.23
2019-06-01T16:02:20.296Z,6.33
2019-06-01T16:04:47.862Z,6.53
2019-06-01T16:07:15.498Z,5.47
2019-06-01T16:09:46.617Z,5.30
2019-06-01T16:12:14.239Z,5.90
2019-06-01T16:14:42.609Z,6.00
2019-06-01T16:17:11.954Z,5.60
2019-06-01T16:19:43.210Z,7.00
2019-06-01T16:22:10.892Z,6.00
2019-06-01T16:24:38.204Z,6.47
2019-06-01T16:27:05.590Z,12.07
2019-06-01T16:29:34.247Z,8.13
2019-06-01T16:32:02.994Z,8.28
2019-06-01T16:34:30.618Z,5.90
2019-06-01T16:36:58.897Z,5.97
2019-06-01T16:39:26.601Z,5.17
2019-06-01T16:41:55.463Z,4.50
2019-06-01T16:44:23.198Z,4.83
2019-06-01T16:46:50.769Z,4.43
2019-06-01T16:49:18.365Z,4.60
2019-06-01T16:51:51.084Z,5.03
2019-06-01T16:54:18.738Z,4.80
2019-06-01T16:56:46.290Z,5.00
2019-06-01T16:59:13.842Z,4.60
2019-06-01T17:01:41.604Z,4.50
2019-06-01T17:04:09.263Z,4.60
2019-06-01T17:06:38.260Z,4.30
2019-06-01T17:09:07.079Z,4.53
2019-06-01T17:11:35.059Z,3.27
2019-06-01T17:14:02.900Z,4.50
2019-06-01T17:16:30.547Z,4.60
2019-06-01T17:18:58.971Z,4.17
2019-06-01T17:21:28.038Z,4.63
2019-06-01T17:23:55.701Z,4.80
2019-06-01T17:26:23.383Z,90.97
2019-06-01T17:28:51.232Z,39.03
2019-06-01T17:31:18.738Z,8.30
2019-06-01T17:33:46.274Z,4.60
2019-06-01T17:36:14.500Z,4.27
2019-06-01T17:38:43.190Z,21.57
2019-06-01T17:41:10.826Z,17.30
2019-06-01T17:43:38.426Z,78.83
2019-06-01T17:46:05.864Z,44.70
2019-06-01T17:48:33.451Z,25.63
2019-06-01T17:51:01.243Z,5.17
2019-06-01T17:53:30.143Z,32.10
2019-06-01T17:55:57.494Z,14.20
2019-06-01T17:58:25.085Z,6.83
2019-06-01T18:00:52.706Z,4.33
2019-06-01T18:03:20.205Z,28.37
2019-06-01T18:05:48.771Z,9.60
2019-06-01T18:08:16.428Z,16.90
2019-06-01T18:10:53.815Z,10.57
2019-06-01T18:13:17.724Z,5.73
2019-06-01T18:15:45.327Z,5.53
2019-06-01T18:18:14.249Z,3.70
2019-06-01T18:20:41.912Z,4.70
2019-06-01T18:23:11.489Z,3.47
2019-06-01T18:25:39.593Z,3.50
2019-06-01T18:28:13.236Z,3.57
2019-06-01T18:30:36.970Z,3.83
2019-06-01T18:33:08.973Z,4.03
2019-06-01T18:35:36.995Z,3.87
2019-06-01T18:38:05.887Z,3.50
2019-06-01T18:40:33.508Z,4.40
2019-06-01T18:43:05.984Z,4.33
2019-06-01T18:45:34.297Z,4.30
2019-06-01T18:48:03.521Z,5.00
2019-06-01T18:50:31.284Z,4.83
2019-06-01T18:52:58.992Z,4.63
2019-06-01T18:55:27.788Z,4.50
2019-06-01T18:57:58.422Z,5.67
2019-06-01T19:00:26.259Z,5.03
2019-06-01T19:02:54.170Z,4.60
2019-06-01T19:05:21.744Z,4.73
2019-06-01T19:07:49.470Z,4.80
2019-06-01T19:10:17.999Z,5.10
2019-06-01T19:12:45.965Z,4.30
2019-06-01T19:15:26.685Z,4.10
2019-06-01T19:17:50.533Z,4.67
2019-06-01T19:20:18.094Z,4.40
2019-06-01T19:22:45.783Z,5.00
2019-06-01T19:25:14.929Z,4.33
2019-06-01T19:27:43.892Z,4.60
2019-06-01T19:30:15.376Z,4.37
2019-06-01T19:32:44.344Z,4.10
2019-06-01T19:35:32.488Z,4.57
2019-06-01T19:38:00.647Z,4.30
2019-06-01T19:40:33.261Z,4.00
2019-06-01T19:43:00.806Z,4.70
2019-06-01T19:45:29.644Z,4.20
2019-06-01T19:47:57.798Z,4.50
2019-06-01T19:50:26.090Z,3.80
2019-06-01T19:52:53.490Z,4.27
2019-06-01T19:55:22.117Z,4.30
2019-06-01T19:57:49.805Z,3.97
2019-06-01T20:00:18.539Z,4.00
2019-06-01T20:02:46.542Z,4.80
2019-06-01T20:05:14.669Z,4.63
2019-06-01T20:07:45.333Z,4.63
2019-06-01T20:10:12.898Z,4.83
2019-06-01T20:12:40.566Z,4.77
2019-06-01T20:15:09.346Z,4.70
2019-06-01T20:17:36.754Z,4.53
2019-06-01T20:20:04.876Z,3.73
2019-06-01T20:22:32.246Z,4.67
2019-06-01T20:24:59.713Z,5.92
2019-06-01T20:27:27.391Z,4.90
2019-06-01T20:29:55.374Z,5.47
2019-06-01T20:32:23.243Z,4.80
2019-06-01T20:34:51.509Z,5.80
2019-06-01T20:37:20.145Z,5.33
2019-06-01T20:39:48.532Z,5.70
2019-06-01T20:42:22.119Z,6.00
2019-06-01T20:44:45.849Z,6.40
2019-06-01T20:47:14.756Z,6.03
2019-06-01T20:49:42.999Z,6.77
2019-06-01T20:52:10.566Z,5.97
2019-06-01T20:54:38.157Z,6.13
2019-06-01T20:57:06.553Z,6.13
2019-06-01T20:59:34.002Z,6.30
2019-06-01T21:02:01.467Z,6.27
2019-06-01T21:04:29.186Z,5.67
2019-06-01T21:06:56.729Z,5.90
2019-06-01T21:09:24.432Z,7.07
2019-06-01T21:11:52.241Z,6.60
2019-06-01T21:14:20.440Z,7.23
2019-06-01T21:16:47.957Z,5.93
2019-06-01T21:19:16.274Z,6.67
2019-06-01T21:21:46.125Z,6.60
2019-06-01T21:24:14.737Z,6.43
2019-06-01T21:26:43.397Z,7.50
2019-06-01T21:29:11.048Z,8.10
2019-06-01T21:31:38.605Z,7.77
2019-06-01T21:34:06.202Z,7.80
2019-06-01T21:36:33.729Z,7.07
2019-06-01T21:39:02.108Z,7.37
2019-06-01T21:41:31.505Z,7.10
2019-06-01T21:43:58.995Z,6.73
2019-06-01T21:46:26.505Z,6.80
2019-06-01T21:48:54.026Z,6.40
2019-06-01T21:51:24.037Z,7.33
2019-06-01T21:53:51.680Z,6.50
2019-06-01T21:56:20.751Z,7.80
2019-06-01T21:58:48.682Z,7.27
2019-06-01T22:01:16.416Z,7.90
2019-06-01T22:03:44.414Z,9.00
2019-06-01T22:06:13.053Z,9.10
2019-06-01T22:08:40.689Z,8.80
2019-06-01T22:11:08.250Z,8.60
2019-06-01T22:13:35.726Z,7.13
2019-06-01T22:16:03.158Z,6.70
2019-06-01T22:18:30.773Z,6.80
2019-06-01T22:20:58.191Z,7.30
2019-06-01T22:23:26.085Z,6.37
2019-06-01T22:25:53.641Z,7.00
2019-06-01T22:28:22.234Z,9.47
2019-06-01T22:30:50.130Z,8.37
2019-06-01T22:33:20.054Z,7.83
2019-06-01T22:35:47.070Z,7.43
2019-06-01T22:38:14.698Z,6.80
2019-06-01T22:40:44.997Z,6.77
2019-06-01T22:43:12.609Z,6.50
2019-06-01T22:45:40.053Z,6.43
2019-06-01T22:48:07.488Z,6.10
2019-06-01T22:50:34.955Z,6.07
2019-06-01T22:53:02.405Z,6.17
2019-06-01T22:55:29.989Z,6.47
2019-06-01T22:57:57.553Z,7.20
2019-06-01T23:00:25.855Z,7.17
2019-06-01T23:02:53.444Z,6.63
2019-06-01T23:05:21.015Z,6.80
2019-06-01T23:07:48.592Z,6.70
2019-06-01T23:10:16.125Z,6.50
2019-06-01T23:12:46.122Z,7.20
2019-06-01T23:15:13.757Z,6.63
2019-06-01T23:17:41.318Z,5.50
2019-06-01T23:20:08.969Z,6.10
2019-06-01T23:22:36.582Z,6.00
2019-06-01T23:25:04.927Z,6.20
2019-06-01T23:27:32.634Z,6.40
2019-06-01T23:30:00.086Z,5.90
2019-06-01T23:32:28.514Z,6.20
2019-06-01T23:34:56.362Z,6.10
2019-06-01T23:37:24.710Z,6.77
2019-06-01T23:39:52.312Z,6.10
2019-06-01T23:42:19.734Z,5.20
2019-06-01T23:44:47.185Z,6.20
2019-06-01T23:47:14.680Z,6.27
2019-06-01T23:49:45.062Z,6.10
2019-06-01T23:52:12.491Z,6.20
2019-06-01T23:54:39.961Z,6.93
2019-06-01T23:57:07.378Z,6.97
2019-06-01T23:59:34.816Z,6.60
